Time;durP1;ratioP1;P1;durP2;ratioP2;P2;SDS_P1;SDS_P2;PMS_P1;PMS_P2;Temp;Humidity;BMP_temperature;BMP_pressure;BME280_temperature;BME280_humidity;BME280_pressure;Samples;Min_cycle;Max_cycle;Signal;HPM_P1;HPM_P2
2022/06/16 00:00:47;;;;;;;13.75;5.45;;;11.80;76.40;;;;;;4951442;29;20059;-75
2022/06/16 00:03:15;;;;;;;17.58;6.35;;;11.80;76.60;;;;;;4952104;29;20048;-76
2022/06/16 00:05:44;;;;;;;13.65;5.78;;;11.80;76.80;;;;;;4953523;29;20054;-76
2022/06/16 00:08:14;;;;;;;14.65;5.70;;;11.80;77.20;;;;;;4951314;29;20050;-74
2022/06/16 00:13:37;;;;;;;14.25;6.07;;;11.70;77.30;;;;;;4949412;29;20393;-77
2022/06/16 00:16:06;;;;;;;12.30;4.82;;;11.60;77.60;;;;;;4934188;29;20050;-77
2022/06/16 00:18:34;;;;;;;8.90;4.38;;;11.50;77.70;;;;;;4936700;29;20402;-77
2022/06/16 00:21:02;;;;;;;14.32;5.28;;;11.50;77.90;;;;;;4952361;29;20054;-76
2022/06/16 00:23:30;;;;;;;12.38;5.18;;;11.40;78.00;;;;;;4952971;29;20055;-77
2022/06/16 00:26:12;;;;;;;11.48;5.25;;;11.30;78.20;;;;;;4943878;29;20043;-75
2022/06/16 00:28:40;;;;;;;11.68;4.68;;;11.30;78.50;;;;;;4945606;29;20067;-75
2022/06/16 00:31:10;;;;;;;9.90;4.90;;;11.30;78.50;;;;;;4951656;29;20404;-75
2022/06/16 00:33:39;;;;;;;8.05;4.80;;;11.30;78.60;;;;;;4947354;29;20047;-75
2022/06/16 00:36:07;;;;;;;8.20;5.15;;;11.30;78.70;;;;;;4943503;29;20078;-74
2022/06/16 00:38:35;;;;;;;8.82;4.72;;;11.20;78.80;;;;;;4950506;29;20051;-74
2022/06/16 00:41:02;;;;;;;11.57;4.80;;;11.20;78.90;;;;;;4953233;29;20055;-74
2022/06/16 00:43:30;;;;;;;14.32;5.60;;;11.20;79.10;;;;;;4946703;29;20065;-74
2022/06/16 00:46:02;;;;;;;11.65;5.25;;;11.10;79.20;;;;;;4952075;29;20039;-74
2022/06/16 00:48:41;;;;;;;15.18;4.78;;;11.10;79.30;;;;;;4945773;29;20058;-76
2022/06/16 00:51:26;;;;;;;11.35;4.80;;;11.10;79.40;;;;;;4944484;29;20062;-76
2022/06/16 00:54:02;;;;;;;11.48;5.53;;;11.10;79.50;;;;;;4945007;29;20055;-76
2022/06/16 00:56:29;;;;;;;13.27;5.53;;;11.10;79.50;;;;;;4941270;29;20052;-76
2022/06/16 00:59:02;;;;;;;15.90;6.65;;;11.00;79.60;;;;;;4944447;29;20055;-75
2022/06/16 01:01:31;;;;;;;12.88;4.80;;;11.00;79.80;;;;;;4948446;29;20062;-75
2022/06/16 01:06:46;;;;;;;11.57;5.03;;;10.80;79.90;;;;;;4945082;28;20056;-75
2022/06/16 01:09:21;;;;;;;9.68;5.45;;;10.80;80.00;;;;;;4944837;29;20047;-76
2022/06/16 01:15:11;;;;;;;15.13;5.80;;;10.80;80.30;;;;;;4880799;29;20503;-76
2022/06/16 01:17:45;;;;;;;8.90;4.40;;;10.70;80.30;;;;;;4887762;29;20052;-76
2022/06/16 01:20:32;;;;;;;13.75;4.97;;;10.70;80.40;;;;;;4871920;29;20045;-75
2022/06/16 01:23:14;;;;;;;13.15;4.28;;;10.70;80.40;;;;;;4872492;29;20053;-75
2022/06/16 01:26:08;;;;;;;9.37;4.30;;;10.80;80.40;;;;;;4875859;29;20072;-75
2022/06/16 01:29:03;;;;;;;13.35;4.43;;;10.80;80.30;;;;;;4885949;29;20509;-75
2022/06/16 01:31:37;;;;;;;8.80;4.50;;;10.90;80.10;;;;;;4876310;29;20072;-75
2022/06/16 01:34:05;;;;;;;9.75;5.20;;;11.00;80.00;;;;;;4891442;29;20056;-76
2022/06/16 01:36:41;;;;;;;10.10;4.80;;;11.00;79.90;;;;;;4844616;29;20081;-76
2022/06/16 01:39:19;;;;;;;8.23;4.78;;;11.10;79.90;;;;;;4883018;29;20097;-75
2022/06/16 01:41:53;;;;;;;7.07;5.15;;;11.10;79.90;;;;;;4877523;29;20056;-75
2022/06/16 01:44:36;;;;;;;9.98;5.53;;;11.10;79.80;;;;;;4887062;29;20056;-75
2022/06/16 01:47:17;;;;;;;9.70;5.72;;;11.10;79.90;;;;;;4873025;29;20072;-75
2022/06/16 01:50:01;;;;;;;6.03;5.22;;;11.10;80.00;;;;;;4873203;29;20554;-75
2022/06/16 01:52:46;;;;;;;9.18;5.57;;;11.10;80.10;;;;;;4939645;29;20413;-75
2022/06/16 01:55:20;;;;;;;11.10;6.43;;;11.10;80.10;;;;;;4952022;29;20045;-75
2022/06/16 01:57:54;;;;;;;11.15;5.60;;;11.10;80.00;;;;;;4945068;29;20051;-75
2022/06/16 02:00:27;;;;;;;10.48;5.80;;;11.10;80.00;;;;;;4936760;29;20062;-73
2022/06/16 02:03:06;;;;;;;9.25;5.43;;;11.20;80.10;;;;;;4950519;29;20047;-75
2022/06/16 02:06:06;;;;;;;12.48;5.70;;;11.10;80.20;;;;;;4956064;28;20092;-75
2022/06/16 02:08:41;;;;;;;11.07;5.88;;;11.10;80.30;;;;;;4954472;29;20601;-75
2022/06/16 02:11:18;;;;;;;10.60;5.05;;;11.10;80.20;;;;;;4944482;29;20462;-75
2022/06/16 02:14:27;;;;;;;16.40;6.18;;;11.10;80.40;;;;;;4951979;29;20054;-76
2022/06/16 02:17:03;;;;;;;6.88;4.75;;;11.00;80.60;;;;;;4907227;29;20059;-75
2022/06/16 02:19:32;;;;;;;9.65;4.75;;;11.00;80.60;;;;;;4941247;29;20044;-75
2022/06/16 02:22:01;;;;;;;9.52;4.70;;;11.10;80.60;;;;;;4936675;29;20051;-75
2022/06/16 02:24:30;;;;;;;9.02;4.70;;;11.10;80.70;;;;;;4927521;29;20043;-75
2022/06/16 02:26:59;;;;;;;11.30;4.68;;;11.10;80.80;;;;;;4951734;29;20047;-75
2022/06/16 02:29:38;;;;;;;6.97;4.50;;;11.10;80.80;;;;;;4953840;29;20044;-75
2022/06/16 02:32:21;;;;;;;14.25;5.35;;;11.10;81.00;;;;;;4934526;29;20512;-75
2022/06/16 02:34:54;;;;;;;8.13;4.57;;;11.00;81.00;;;;;;4946784;29;20060;-75
2022/06/16 02:37:30;;;;;;;6.53;4.22;;;11.10;81.10;;;;;;4948106;29;20504;-75
2022/06/16 02:40:39;;;;;;;4.32;3.78;;;11.10;81.20;;;;;;4951416;29;20047;-75
2022/06/16 02:43:46;;;;;;;8.98;4.72;;;11.00;81.30;;;;;;4932612;29;20040;-75
2022/06/16 02:46:36;;;;;;;7.75;4.43;;;11.00;81.40;;;;;;4952528;29;20039;-74
2022/06/16 02:49:08;;;;;;;8.82;4.63;;;11.00;81.40;;;;;;4954788;29;20066;-75
2022/06/16 02:51:57;;;;;;;7.40;4.68;;;10.90;81.50;;;;;;4945916;29;20051;-75
2022/06/16 02:54:55;;;;;;;7.90;4.93;;;10.90;81.60;;;;;;4939104;29;20055;-74
2022/06/16 02:57:43;;;;;;;10.18;4.75;;;10.90;81.80;;;;;;4949996;29;20401;-75
2022/06/16 03:00:17;;;;;;;7.93;4.95;;;10.80;81.80;;;;;;4949543;29;20047;-75
2022/06/16 03:02:45;;;;;;;8.13;4.60;;;10.80;81.90;;;;;;4945996;29;20051;-75
2022/06/16 03:05:15;;;;;;;9.00;5.00;;;10.80;82.00;;;;;;4951101;29;20058;-75
2022/06/16 03:07:44;;;;;;;10.45;4.95;;;10.80;82.20;;;;;;4953919;29;20058;-75
2022/06/16 03:10:50;;;;;;;8.07;5.15;;;10.70;82.30;;;;;;4941741;29;20055;-75
2022/06/16 03:13:23;;;;;;;10.60;5.55;;;10.70;82.50;;;;;;4939850;29;20491;-75
2022/06/16 03:15:53;;;;;;;12.82;5.53;;;10.60;82.70;;;;;;4949914;28;20056;-75
2022/06/16 03:18:22;;;;;;;22.45;6.85;;;10.60;82.80;;;;;;4952643;29;20086;-76
2022/06/16 03:20:50;;;;;;;13.07;6.70;;;10.50;83.00;;;;;;4946871;29;20508;-76
2022/06/16 03:23:19;;;;;;;16.10;6.57;;;10.50;83.10;;;;;;4953736;29;20043;-76
2022/06/16 03:25:48;;;;;;;15.57;6.75;;;10.40;83.30;;;;;;4928953;29;20052;-76
2022/06/16 03:28:16;;;;;;;9.07;5.63;;;10.30;83.50;;;;;;4950430;29;20214;-74
2022/06/16 03:30:44;;;;;;;9.35;5.35;;;10.30;83.70;;;;;;4959601;29;20503;-75
2022/06/16 03:33:15;;;;;;;11.32;5.78;;;10.30;84.10;;;;;;4952094;29;20059;-75
2022/06/16 03:35:47;;;;;;;11.93;5.78;;;10.30;84.20;;;;;;4949083;29;20540;-75
2022/06/16 03:38:50;;;;;;;22.10;8.18;;;10.30;84.30;;;;;;4957416;29;20048;-75
2022/06/16 03:41:13;;;;;;;16.10;7.00;;;10.40;84.40;;;;;;4947330;29;20055;-75
2022/06/16 03:43:43;;;;;;;18.10;7.43;;;10.40;84.40;;;;;;4951672;29;20058;-75
2022/06/16 03:46:16;;;;;;;18.83;8.05;;;10.40;84.50;;;;;;4951087;29;20043;-75
2022/06/16 03:48:53;;;;;;;19.30;7.43;;;10.40;84.50;;;;;;4928217;29;20058;-75
2022/06/16 03:51:31;;;;;;;20.65;8.90;;;10.40;84.60;;;;;;4952908;29;20078;-74
2022/06/16 03:53:58;;;;;;;18.80;7.80;;;10.30;84.70;;;;;;4951297;29;20507;-75
2022/06/16 03:56:26;;;;;;;10.85;6.28;;;10.30;84.80;;;;;;4948613;29;20452;-75
2022/06/16 03:58:56;;;;;;;18.60;7.82;;;10.30;85.00;;;;;;4931912;29;20063;-75
2022/06/16 04:01:24;;;;;;;20.40;7.78;;;10.30;85.10;;;;;;4946266;29;20089;-75
2022/06/16 04:04:01;;;;;;;16.88;7.68;;;10.30;85.20;;;;;;4952058;29;20043;-75
2022/06/16 04:07:01;;;;;;;22.20;7.20;;;10.30;85.20;;;;;;4941105;29;20501;-75
2022/06/16 04:09:29;;;;;;;11.40;4.70;;;10.30;85.20;;;;;;4947642;29;20039;-75
2022/06/16 04:12:00;;;;;;;8.52;3.17;;;10.30;85.40;;;;;;4951357;29;20047;-76
2022/06/16 04:14:29;;;;;;;7.13;3.22;;;10.30;85.50;;;;;;4939849;29;20054;-75
2022/06/16 04:16:58;;;;;;;5.28;3.05;;;10.30;85.50;;;;;;4950970;29;20054;-75
2022/06/16 04:19:31;;;;;;;6.70;2.83;;;10.30;85.40;;;;;;4949675;29;20047;-75
2022/06/16 04:21:59;;;;;;;6.32;3.28;;;10.40;85.30;;;;;;4934074;29;20054;-75
2022/06/16 04:24:36;;;;;;;4.88;2.70;;;10.40;85.20;;;;;;4942201;29;20409;-75
2022/06/16 04:27:04;;;;;;;5.20;2.40;;;10.50;85.10;;;;;;4940210;29;20047;-76
2022/06/16 04:29:32;;;;;;;4.00;2.60;;;10.50;85.10;;;;;;4951481;29;20035;-76
2022/06/16 04:32:00;;;;;;;4.72;3.03;;;10.60;84.90;;;;;;4940656;29;20421;-76
2022/06/16 04:34:57;;;;;;;5.32;2.80;;;10.50;84.80;;;;;;4945378;28;20548;-75
2022/06/16 04:37:28;;;;;;;4.13;2.90;;;10.50;84.80;;;;;;4951955;29;20058;-76
2022/06/16 04:39:57;;;;;;;6.50;3.15;;;10.50;84.80;;;;;;4951143;29;20070;-75
2022/06/16 04:42:26;;;;;;;8.80;3.33;;;10.60;84.90;;;;;;4949824;29;20202;-76
2022/06/16 04:44:54;;;;;;;6.13;3.30;;;10.60;84.90;;;;;;4952065;29;20062;-76
2022/06/16 04:47:22;;;;;;;8.57;3.22;;;10.70;84.90;;;;;;4934770;29;20047;-76
2022/06/16 04:49:50;;;;;;;12.40;3.33;;;10.80;84.90;;;;;;4952027;29;20051;-75
2022/06/16 04:52:18;;;;;;;6.18;3.05;;;10.80;84.80;;;;;;4946526;29;20051;-76
2022/06/16 04:54:50;;;;;;;6.90;3.75;;;10.80;84.80;;;;;;4941135;29;20663;-76
2022/06/16 04:58:02;;;;;;;7.20;5.03;;;10.80;84.70;;;;;;4948062;29;20054;-74
2022/06/16 05:00:39;;;;;;;11.40;5.15;;;10.90;84.70;;;;;;4949524;29;20051;-75
2022/06/16 05:03:46;;;;;;;8.40;5.18;;;11.00;84.70;;;;;;4949568;29;20040;-74
2022/06/16 05:06:40;;;;;;;10.68;6.47;;;11.30;84.60;;;;;;4951894;29;20374;-73
2022/06/16 05:09:37;;;;;;;13.10;6.40;;;11.40;84.40;;;;;;4941983;28;20056;-75
2022/06/16 05:12:43;;;;;;;13.32;6.60;;;11.50;84.20;;;;;;4947577;29;20058;-74
2022/06/16 05:15:28;;;;;;;13.48;6.93;;;11.70;83.90;;;;;;4925840;29;20521;-73
2022/06/16 05:18:31;;;;;;;10.55;6.75;;;11.80;83.70;;;;;;4917502;29;20060;-74
2022/06/16 05:21:14;;;;;;;9.07;6.40;;;11.90;83.50;;;;;;4921236;29;20533;-75
2022/06/16 05:24:07;;;;;;;10.85;6.28;;;12.00;83.40;;;;;;4922240;29;20055;-75
2022/06/16 05:26:50;;;;;;;;;;;12.10;83.20;;;;;;4943591;29;20051;-75
2022/06/16 05:29:28;;;;;;;14.57;6.57;;;12.20;83.10;;;;;;4948675;29;19930;-74
2022/06/16 05:32:14;;;;;;;13.55;6.70;;;12.30;82.90;;;;;;4949770;29;20075;-75
2022/06/16 05:35:00;;;;;;;9.18;6.07;;;12.30;82.70;;;;;;4950221;29;20171;-75
2022/06/16 05:37:57;;;;;;;9.63;6.35;;;12.40;82.60;;;;;;4873728;29;20049;-75
2022/06/16 05:40:43;;;;;;;11.93;6.20;;;12.50;82.50;;;;;;4862061;29;20053;-75
2022/06/16 05:43:30;;;;;;;13.00;5.53;;;12.60;82.40;;;;;;4882290;29;20052;-74
2022/06/16 05:46:23;;;;;;;12.70;6.25;;;12.70;82.30;;;;;;4880980;29;20052;-74
2022/06/16 05:48:59;;;;;;;10.45;6.38;;;12.70;82.10;;;;;;4878678;29;20516;-74
2022/06/16 05:51:28;;;;;;;10.50;6.07;;;12.80;82.00;;;;;;4868834;29;20056;-74
2022/06/16 05:54:02;;;;;;;7.30;5.65;;;12.80;81.90;;;;;;4879129;29;20052;-75
2022/06/16 05:56:35;;;;;;;11.90;6.00;;;12.80;81.80;;;;;;4880357;29;20075;-75
2022/06/16 05:59:03;;;;;;;13.43;6.57;;;12.80;81.70;;;;;;4896477;29;20068;-75
2022/06/16 06:01:38;;;;;;;11.32;7.22;;;12.90;81.70;;;;;;4873279;29;20515;-75
2022/06/16 06:04:11;;;;;;;9.05;6.38;;;12.90;81.50;;;;;;4877236;29;20554;-75
2022/06/16 06:06:42;;;;;;;9.52;6.13;;;13.00;81.40;;;;;;4873804;29;20052;-75
2022/06/16 06:17:37;;;;;;;10.23;5.82;;;13.30;80.70;;;;;;4953082;29;20053;-75
2022/06/16 06:20:05;;;;;;;11.02;5.63;;;13.40;80.40;;;;;;4954486;28;20338;-75
2022/06/16 06:22:33;;;;;;;14.77;5.57;;;13.50;80.20;;;;;;4949153;29;20043;-74
2022/06/16 06:25:09;;;;;;;9.48;5.30;;;13.50;80.00;;;;;;4954366;29;20062;-75
2022/06/16 06:27:46;;;;;;;8.52;5.18;;;13.60;79.80;;;;;;4954658;29;20489;-75
2022/06/16 06:30:20;;;;;;;6.40;4.50;;;13.60;79.60;;;;;;4952464;28;20536;-75
2022/06/16 06:32:48;;;;;;;22.10;4.78;;;13.70;79.30;;;;;;4952646;29;20054;-75
2022/06/16 06:35:17;;;;;;;11.55;4.80;;;13.70;79.10;;;;;;4952728;29;20054;-75
2022/06/16 06:37:45;;;;;;;9.07;4.70;;;13.70;78.90;;;;;;4955725;28;20394;-75
2022/06/16 06:40:27;;;;;;;13.50;5.63;;;13.70;78.80;;;;;;4953068;29;20062;-75
2022/06/16 06:42:55;;;;;;;12.33;4.30;;;13.80;78.60;;;;;;4942082;29;20055;-75
2022/06/16 06:45:24;;;;;;;10.75;4.38;;;13.80;78.50;;;;;;4954050;28;20124;-75
2022/06/16 06:47:53;;;;;;;13.82;4.43;;;13.80;78.30;;;;;;4954880;29;20059;-75
2022/06/16 06:50:27;;;;;;;15.68;4.10;;;13.90;78.00;;;;;;4952622;28;20055;-75
2022/06/16 06:52:55;;;;;;;10.20;3.63;;;14.00;77.70;;;;;;4952343;29;20059;-75
2022/06/16 06:55:24;;;;;;;5.95;3.08;;;14.00;77.40;;;;;;4947518;29;20039;-75
2022/06/16 06:57:53;;;;;;;14.80;3.63;;;14.10;77.10;;;;;;4951155;29;20039;-76
2022/06/16 07:00:25;;;;;;;9.82;3.40;;;14.20;76.80;;;;;;4955181;29;20050;-75
2022/06/16 07:02:53;;;;;;;11.80;3.10;;;14.30;76.60;;;;;;4953513;29;20035;-76
2022/06/16 07:05:22;;;;;;;12.07;2.85;;;14.30;76.40;;;;;;4945086;29;20043;-75
2022/06/16 07:07:50;;;;;;;8.52;3.15;;;14.30;76.20;;;;;;4948725;29;20055;-73
2022/06/16 07:10:19;;;;;;;5.93;3.28;;;14.50;76.00;;;;;;4950814;29;20043;-74
2022/06/16 07:12:46;;;;;;;10.68;3.35;;;14.60;75.50;;;;;;4952681;29;20055;-75
2022/06/16 07:15:14;;;;;;;9.07;3.88;;;14.70;75.10;;;;;;4951665;29;20050;-75
2022/06/16 07:17:42;;;;;;;9.70;4.20;;;14.70;74.70;;;;;;4955500;29;20493;-75
2022/06/16 07:20:13;;;;;;;6.00;3.53;;;14.70;74.50;;;;;;4946255;29;20051;-75
2022/06/16 07:22:40;;;;;;;7.20;3.50;;;14.80;74.20;;;;;;4951750;29;20047;-74
2022/06/16 07:25:08;;;;;;;7.15;3.60;;;14.80;74.00;;;;;;4943118;29;20046;-74
2022/06/16 07:27:37;;;;;;;7.53;3.53;;;14.90;73.70;;;;;;4953920;29;20055;-74
2022/06/16 07:30:13;;;;;;;7.72;3.67;;;14.90;73.20;;;;;;4951388;29;20050;-74
2022/06/16 07:32:42;;;;;;;6.68;3.88;;;15.00;72.70;;;;;;4955031;29;20047;-75
2022/06/16 07:35:11;;;;;;;9.73;3.22;;;15.00;72.40;;;;;;4954489;29;20050;-75
2022/06/16 07:37:39;;;;;;;6.45;2.80;;;15.10;72.30;;;;;;4954290;29;20070;-75
2022/06/16 07:40:08;;;;;;;21.08;3.25;;;15.20;71.80;;;;;;4953211;29;20520;-75
2022/06/16 07:42:36;;;;;;;7.28;2.33;;;15.30;71.30;;;;;;4955189;29;20043;-72
2022/06/16 07:45:04;;;;;;;6.13;2.10;;;15.30;71.10;;;;;;4955452;29;20047;-73
2022/06/16 07:47:32;;;;;;;4.63;1.52;;;15.40;70.30;;;;;;4953766;29;20520;-75
2022/06/16 07:50:03;;;;;;;7.57;1.80;;;15.60;69.30;;;;;;4956934;29;20062;-73
2022/06/16 07:52:30;;;;;;;4.68;2.17;;;15.70;68.70;;;;;;4964485;29;20058;-73
2022/06/16 07:54:58;;;;;;;4.70;2.00;;;15.80;68.10;;;;;;4959429;29;20102;-75
2022/06/16 07:57:27;;;;;;;6.03;1.90;;;15.90;67.80;;;;;;4957376;29;20047;-75
2022/06/16 07:59:58;;;;;;;6.75;2.50;;;16.00;67.40;;;;;;4951954;29;20047;-75
2022/06/16 08:02:27;;;;;;;6.85;2.28;;;16.20;67.00;;;;;;4952518;28;20509;-75
2022/06/16 08:04:58;;;;;;;6.25;2.30;;;16.30;66.60;;;;;;4956755;29;20061;-74
2022/06/16 08:07:26;;;;;;;6.47;1.98;;;16.40;66.20;;;;;;4955357;29;20394;-75
2022/06/16 08:09:53;;;;;;;8.05;1.85;;;16.60;65.70;;;;;;4954665;29;20050;-75
2022/06/16 08:12:21;;;;;;;5.90;2.35;;;16.70;64.80;;;;;;4954954;29;20050;-75
2022/06/16 08:14:50;;;;;;;4.28;2.00;;;16.80;64.00;;;;;;4951257;29;20055;-75
2022/06/16 08:17:24;;;;;;;7.47;2.30;;;17.00;63.40;;;;;;4952735;29;20047;-75
2022/06/16 08:19:54;;;;;;;4.40;2.15;;;17.20;62.90;;;;;;4953117;29;20069;-75
2022/06/16 08:22:23;;;;;;;5.53;1.70;;;17.30;62.30;;;;;;4953395;29;20050;-75
2022/06/16 08:24:51;;;;;;;8.10;1.52;;;17.40;61.80;;;;;;4953087;29;20043;-75
2022/06/16 08:27:21;;;;;;;16.20;2.22;;;17.50;60.90;;;;;;4952890;29;20059;-75
2022/06/16 08:29:50;;;;;;;4.72;1.70;;;17.70;60.60;;;;;;4954065;29;20409;-75
2022/06/16 08:32:20;;;;;;;4.72;1.55;;;17.80;60.30;;;;;;4953369;28;20058;-74
2022/06/16 08:34:48;;;;;;;4.72;1.38;;;17.90;59.60;;;;;;4953831;29;20051;-75
2022/06/16 08:37:17;;;;;;;4.28;1.45;;;17.90;59.20;;;;;;4953638;29;20055;-74
2022/06/16 08:39:44;;;;;;;3.28;1.42;;;18.10;58.50;;;;;;4947630;29;20052;-74
2022/06/16 08:42:24;;;;;;;8.55;1.83;;;18.20;58.00;;;;;;4953945;29;20059;-74
2022/06/16 08:45:05;;;;;;;8.90;1.55;;;18.30;56.80;;;;;;4954180;29;20072;-74
2022/06/16 08:47:42;;;;;;;6.82;1.65;;;18.40;56.50;;;;;;4954363;29;20070;-75
2022/06/16 08:50:09;;;;;;;5.20;1.70;;;18.50;56.40;;;;;;4947163;29;20338;-75
2022/06/16 08:52:46;;;;;;;5.90;1.40;;;18.60;56.30;;;;;;4943512;29;20507;-75
2022/06/16 08:55:28;;;;;;;11.60;1.67;;;18.80;55.90;;;;;;4941811;29;20047;-74
2022/06/16 08:58:06;;;;;;;8.07;1.17;;;19.00;54.80;;;;;;4934293;29;20044;-73
2022/06/16 09:00:48;;;;;;;12.45;1.77;;;19.10;52.60;;;;;;4938186;29;20421;-73
2022/06/16 09:03:37;;;;;;;6.15;1.75;;;19.00;52.60;;;;;;4951871;29;20512;-73
2022/06/16 09:06:37;;;;;;;4.13;1.20;;;19.30;53.10;;;;;;4954665;29;20050;-73
2022/06/16 09:12:41;;;;;;;5.82;1.20;;;19.90;52.50;;;;;;4953480;29;20417;-75
2022/06/16 09:15:21;;;;;;;6.78;1.40;;;20.20;51.90;;;;;;4935937;29;20044;-74
2022/06/16 09:18:29;;;;;;;7.38;1.38;;;20.40;51.60;;;;;;4955450;29;20055;-74
2022/06/16 09:21:26;;;;;;;5.60;1.42;;;20.60;50.70;;;;;;4956284;28;20071;-75
2022/06/16 09:24:47;;;;;;;7.95;1.30;;;20.80;50.40;;;;;;4966371;28;20047;-74
2022/06/16 09:27:25;;;;;;;5.88;1.23;;;20.80;49.30;;;;;;4861498;29;20053;-75
2022/06/16 09:29:58;;;;;;;6.30;1.15;;;20.90;50.00;;;;;;4878613;29;20065;-74
2022/06/16 09:32:54;;;;;;;4.32;1.20;;;21.00;50.00;;;;;;4847811;29;20056;-75
2022/06/16 09:35:42;;;;;;;3.33;1.20;;;21.10;49.80;;;;;;4862123;29;20049;-76
2022/06/16 09:38:20;;;;;;;6.78;1.70;;;21.30;49.50;;;;;;4862481;29;20334;-75
2022/06/16 09:41:04;;;;;;;5.95;1.60;;;21.50;49.90;;;;;;4879554;29;20049;-76
2022/06/16 09:43:45;;;;;;;4.97;1.50;;;21.50;50.00;;;;;;4885688;29;20052;-76
2022/06/16 09:46:32;;;;;;;8.93;1.75;;;21.70;50.20;;;;;;4852872;29;20053;-76
2022/06/16 09:49:14;;;;;;;7.25;1.65;;;21.80;49.60;;;;;;4860918;29;20057;-76
2022/06/16 09:52:29;;;;;;;3.90;1.50;;;21.80;49.20;;;;;;4877889;29;20049;-75
2022/06/16 09:55:19;;;;;;;2.45;1.13;;;21.80;49.10;;;;;;4875660;29;20045;-76
2022/06/16 09:58:00;;;;;;;2.75;1.40;;;21.60;49.00;;;;;;4877046;29;20052;-75
2022/06/16 10:00:33;;;;;;;11.13;1.60;;;21.80;48.90;;;;;;4880805;29;20059;-75
2022/06/16 10:03:21;;;;;;;14.10;2.08;;;21.80;48.80;;;;;;4956019;29;20066;-75
2022/06/16 10:05:59;;;;;;;4.78;1.55;;;22.00;48.40;;;;;;4956174;29;20054;-75
2022/06/16 10:08:46;;;;;;;4.53;1.30;;;22.10;48.40;;;;;;4957247;29;20054;-76
2022/06/16 10:11:33;;;;;;;5.45;1.33;;;22.30;47.90;;;;;;4957114;29;20504;-76
2022/06/16 10:14:49;;;;;;;9.43;1.17;;;22.50;47.20;;;;;;4955282;29;20242;-75
2022/06/16 10:17:22;;;;;;;4.97;1.20;;;22.80;46.00;;;;;;4948182;28;20047;-76
2022/06/16 10:19:55;;;;;;;1.55;0.98;;;22.80;44.70;;;;;;4948572;29;20051;-75
2022/06/16 10:22:24;;;;;;;;;;;22.70;43.90;;;;;;4930475;29;20055;-76
2022/06/16 10:25:16;;;;;;;10.48;1.27;;;22.60;43.60;;;;;;4952576;29;20416;-75
2022/06/16 10:27:53;;;;;;;3.70;0.80;;;22.60;44.00;;;;;;4947628;29;20047;-75
2022/06/16 10:30:32;;;;;;;4.15;1.05;;;22.80;44.20;;;;;;4954089;29;20524;-77
2022/06/16 10:33:16;;;;;;;3.78;1.05;;;22.90;43.80;;;;;;4937366;29;20056;-76
2022/06/16 10:35:59;;;;;;;14.55;1.95;;;23.00;43.30;;;;;;4941769;29;20417;-77
2022/06/16 10:38:35;;;;;;;1.15;0.82;;;23.10;43.60;;;;;;4921322;29;20047;-76
2022/06/16 10:41:23;;;;;;;4.57;0.75;;;23.10;43.10;;;;;;4952633;29;20062;-75
2022/06/16 10:43:53;;;;;;;1.80;0.93;;;23.10;42.40;;;;;;4949373;28;20044;-75
2022/06/16 10:46:27;;;;;;;5.68;2.78;;;23.30;42.00;;;;;;4951771;29;20493;-76
2022/06/16 10:48:56;;;;;;;12.60;4.95;;;23.30;40.80;;;;;;4953471;29;20454;-74
2022/06/16 10:51:27;;;;;;;4.45;1.30;;;23.30;40.60;;;;;;4955091;28;20054;-75
2022/06/16 10:54:31;;;;;;;17.27;1.55;;;23.30;38.90;;;;;;4953280;28;20055;-75
2022/06/16 10:57:22;;;;;;;6.05;1.20;;;23.30;39.90;;;;;;4946513;29;20047;-76
2022/06/16 10:59:57;;;;;;;17.95;2.47;;;23.50;39.70;;;;;;4947055;29;20047;-74
2022/06/16 11:02:29;;;;;;;22.63;2.25;;;23.70;40.20;;;;;;4945434;29;20399;-74
2022/06/16 11:05:05;;;;;;;4.07;1.45;;;24.00;40.40;;;;;;4954448;28;20051;-74
2022/06/16 11:07:39;;;;;;;4.15;1.48;;;24.10;39.20;;;;;;4954813;29;20051;-74
2022/06/16 11:10:11;;;;;;;11.07;3.85;;;24.10;39.20;;;;;;4955160;29;20497;-74
2022/06/16 11:12:44;;;;;;;4.35;1.70;;;24.30;38.90;;;;;;4944306;29;20048;-74
2022/06/16 11:15:38;;;;;;;3.35;1.23;;;24.50;39.40;;;;;;4953250;29;20062;-74
2022/06/16 11:18:12;;;;;;;;;;;24.80;38.80;;;;;;4948172;28;20058;-74
2022/06/16 11:20:43;;;;;;;4.63;1.58;;;24.90;39.10;;;;;;4947865;29;19929;-74
2022/06/16 11:23:34;;;;;;;2.78;1.40;;;25.10;38.80;;;;;;4953901;29;20441;-75
2022/06/16 11:26:30;;;;;;;4.53;1.40;;;25.00;38.70;;;;;;4955453;29;20058;-74
2022/06/16 11:29:15;;;;;;;1.90;1.60;;;25.00;39.30;;;;;;4954422;29;20055;-73
2022/06/16 11:31:45;;;;;;;6.03;1.50;;;25.10;40.00;;;;;;4955536;29;20051;-73
2022/06/16 11:34:23;;;;;;;5.53;1.70;;;25.30;40.20;;;;;;4955446;29;20071;-74
2022/06/16 11:37:09;;;;;;;3.03;1.33;;;25.30;40.20;;;;;;4955050;28;20051;-74
2022/06/16 11:40:07;;;;;;;103.63;4.68;;;25.20;39.40;;;;;;4955226;29;20054;-74
2022/06/16 11:42:50;;;;;;;4.63;1.27;;;24.90;40.80;;;;;;4954142;29;20488;-74
2022/06/16 11:45:38;;;;;;;6.10;1.38;;;24.80;40.80;;;;;;4955439;29;20055;-74
2022/06/16 11:48:34;;;;;;;2.30;1.10;;;24.60;40.80;;;;;;4955264;29;20070;-74
2022/06/16 11:51:10;;;;;;;4.18;1.08;;;24.50;40.60;;;;;;4955287;29;20409;-74
2022/06/16 11:53:44;;;;;;;7.18;1.42;;;24.30;40.40;;;;;;4953298;29;20047;-74
2022/06/16 11:56:43;;;;;;;5.93;1.27;;;24.30;40.70;;;;;;4955212;29;20047;-74
2022/06/16 11:59:41;;;;;;;1.48;1.10;;;24.30;41.00;;;;;;4955004;28;20051;-74
2022/06/16 12:02:27;;;;;;;3.38;1.35;;;24.00;41.30;;;;;;4959582;29;20055;-74
2022/06/16 12:05:01;;;;;;;2.30;1.00;;;23.80;41.90;;;;;;4956304;29;20051;-74
2022/06/16 12:07:47;;;;;;;;;;;23.90;41.70;;;;;;4954974;28;20524;-74
2022/06/16 12:10:34;;;;;;;6.45;1.08;;;24.10;41.50;;;;;;4954933;29;20372;-74
2022/06/16 12:13:20;;;;;;;3.92;0.95;;;24.70;40.70;;;;;;4954588;28;20051;-74
2022/06/16 12:15:52;;;;;;;0.80;0.75;;;25.30;39.40;;;;;;4954720;29;20055;-74
2022/06/16 12:18:40;;;;;;;1.80;1.08;;;25.60;39.10;;;;;;4937874;29;20055;-74
2022/06/16 12:21:28;;;;;;;2.58;1.10;;;25.90;38.50;;;;;;4953496;29;20051;-74
2022/06/16 12:24:06;;;;;;;3.88;1.30;;;26.20;37.90;;;;;;4954717;29;20052;-74
2022/06/16 12:26:46;;;;;;;3.28;1.20;;;26.40;37.50;;;;;;4953420;29;20062;-75
2022/06/16 12:29:26;;;;;;;3.97;1.15;;;26.40;37.00;;;;;;4947872;29;20047;-74
2022/06/16 12:32:09;;;;;;;1.52;0.90;;;26.30;37.30;;;;;;4953396;29;20397;-74
2022/06/16 12:35:04;;;;;;;3.47;1.23;;;26.20;37.70;;;;;;4953850;29;20428;-75
2022/06/16 12:37:38;;;;;;;2.50;1.00;;;26.20;37.60;;;;;;4952991;29;20082;-74
2022/06/16 12:40:13;;;;;;;;;;;26.30;37.10;;;;;;4936056;29;20055;-74
2022/06/16 12:42:53;;;;;;;0.77;0.73;;;26.40;36.30;;;;;;4953429;29;19929;-74
2022/06/16 12:45:30;;;;;;;1.75;0.60;;;26.30;36.20;;;;;;4953574;28;20051;-74
2022/06/16 12:48:28;;;;;;;3.22;0.93;;;26.30;35.80;;;;;;4935048;29;20059;-74
2022/06/16 12:51:00;;;;;;;3.28;0.70;;;26.60;36.30;;;;;;4953337;29;20051;-74
2022/06/16 12:53:36;;;;;;;1.40;0.70;;;27.00;35.10;;;;;;4954245;29;20043;-74
2022/06/16 12:56:08;;;;;;;1.88;0.80;;;27.50;35.20;;;;;;4952915;28;20051;-74
2022/06/16 12:58:44;;;;;;;2.35;0.60;;;28.10;34.10;;;;;;4952954;29;20067;-74
2022/06/16 13:01:12;;;;;;;14.10;0.93;;;28.50;33.30;;;;;;4953825;29;20047;-75
2022/06/16 13:03:52;;;;;;;3.47;0.80;;;28.40;32.50;;;;;;4952935;29;20049;-74
2022/06/16 13:06:24;;;;;;;5.20;0.57;;;28.50;32.70;;;;;;4952540;29;20039;-75
2022/06/16 13:08:56;;;;;;;1.48;0.60;;;28.80;31.60;;;;;;4953480;28;20059;-74
2022/06/16 13:11:31;;;;;;;3.08;0.80;;;28.80;31.00;;;;;;4953398;28;20477;-74
2022/06/16 13:14:06;;;;;;;0.60;0.50;;;28.70;30.60;;;;;;4953001;28;20055;-74
2022/06/16 13:16:39;;;;;;;5.97;0.93;;;28.60;30.90;;;;;;4951258;29;20059;-75
2022/06/16 13:19:18;;;;;;;6.15;1.08;;;28.40;31.00;;;;;;4954013;29;20520;-74
2022/06/16 13:21:55;;;;;;;3.05;1.00;;;28.40;30.90;;;;;;4953898;29;20043;-75
2022/06/16 13:24:38;;;;;;;18.63;1.73;;;28.70;31.20;;;;;;4953842;29;20510;-75
2022/06/16 13:27:27;;;;;;;19.25;1.20;;;29.10;30.80;;;;;;4952699;29;20386;-74
2022/06/16 13:30:18;;;;;;;8.40;1.30;;;29.70;31.00;;;;;;4940531;29;20063;-74
2022/06/16 13:32:49;;;;;;;3.50;0.90;;;30.30;30.00;;;;;;4943324;28;20058;-74
2022/06/16 13:35:23;;;;;;;2.58;1.20;;;30.80;30.60;;;;;;4950032;29;20531;-74
2022/06/16 13:38:10;;;;;;;1.45;0.70;;;31.40;30.20;;;;;;4953817;29;20489;-75
2022/06/16 13:40:41;;;;;;;4.68;1.13;;;31.80;29.50;;;;;;4943529;29;20050;-74
2022/06/16 13:43:17;;;;;;;7.90;1.35;;;32.00;29.50;;;;;;4949061;29;20051;-75
2022/06/16 13:45:57;;;;;;;2.35;0.73;;;32.10;28.80;;;;;;4945809;29;20501;-74
2022/06/16 13:48:49;;;;;;;2.88;0.70;;;31.70;27.70;;;;;;4944062;29;20135;-74
2022/06/16 13:51:36;;;;;;;3.08;1.10;;;30.90;27.30;;;;;;4953366;28;20492;-76
2022/06/16 13:54:08;;;;;;;3.15;1.10;;;30.10;28.60;;;;;;4952099;29;20050;-75
2022/06/16 13:56:41;;;;;;;10.18;1.25;;;29.60;29.70;;;;;;4953794;29;20055;-74
2022/06/16 13:59:38;;;;;;;4.50;1.15;;;29.70;29.80;;;;;;4951768;29;20063;-75